Burbank, OH

8:54 PM EST on March 01, 2015 (GMT -0500)
Wayne County | Change Station
CLOSE
Current Station
Airport
Location: Wooster,
Elevation: 1135 ft
Nearby Weather Stations
Active Advisory: Winter Weather Statement Active Notice: Record Report, Local Storm Report

Elev 1135 ft 40.87 °N, 81.89 °W | Updated 14 minutes ago

Overcast
Overcast
27 °F
Feels Like 23 °F
N
4
Wind Variable Wind from NW

Today
High -- | Low -- °F
--% Chance of Precip.
Yesterday
High -- | Low -- °F
Precip. -- in
7:02 AM 6:18 PM
Waxing Gibbous, 88% visible
Pressure 30.20 in
Visibility 4.0 miles
Clouds Few 800 ft
Mostly Cloudy 1700 ft
Overcast 5000 ft
Windchill 23 °F
Dew Point 25 °F
Humidity 92%
Rainfall 0.37 in
Snow Depth Not available.
UV 0 out of 12
Pollen .50 out of 12
Air Quality Not available.
Flu Activity Not available.
SPECI KBJJ 020140Z AUTO 32003KT 4SM BR FEW008 BKN017 OVC050 M03/M04 A3020 RMK AO2 T10281039 TSNO

More Conditions Fewer Conditions

Pressure 30.20 in
Visibility 4.0 miles
Clouds Few 800 ft
Mostly Cloudy 1700 ft
Overcast 5000 ft
Windchill 23 °F
Dew Point 25 °F
Humidity 92%
Rainfall 0.37 in
Snow Depth Not available.
UV 0 out of 12
Pollen .50 out of 12
Air Quality Not available.
Flu Activity Not available.
SPECI KBJJ 020140Z AUTO 32003KT 4SM BR FEW008 BKN017 OVC050 M03/M04 A3020 RMK AO2 T10281039 TSNO

More Conditions Fewer Conditions

10-Day Weather Forecast

Almanac

Astronomy

Mar. 01, 2015 Rise Set
Actual Time
Civil Twilight
Nautical Twilight
Astronomical Twilight
Moon
Length of Visible Light
Length of Day
Tomorrow will be .
, % of the Moon is Illuminated

Today's Extremes

State Highs State Lows

Community

WunderPhotos

Upload Photos

1,801,677 photos uploaded!

WunderBlogs® & News

Nearby

Air Quality

  Air Quality AQ Index Pollutant
Not available.

Snow Depth

Station Depth Elevation

Earthquake Activity

City Distance Mag. Time & Date
Minimum magnitude displayed is 2.5.

Coastal Water Temperatures

Place Temperature

Nearby Weather Stations

Winter Weather Statement
Statement as of 8:50 PM EST on March 01, 2015

... Winter Weather Advisory is cancelled...

The National Weather Service in Cleveland has cancelled the
Winter Weather Advisory.

Snow from the system that affected the area today has
exited... therefore the Winter Weather Advisory has been cancelled.